Time;durP1;ratioP1;P1;durP2;ratioP2;P2;SDS_P1;SDS_P2;PMS_P1;PMS_P2;Temp;Humidity;BMP_temperature;BMP_pressure;BME280_temperature;BME280_humidity;BME280_pressure;Samples;Min_cycle;Max_cycle;Signal;HPM_P1;HPM_P2
2021/09/04 00:02:01;;;;;;;35.33;14.75;;;;;;;24.79;41.93;101309.97;4423448;32;20046;-67
2021/09/04 00:04:26;;;;;;;30.10;14.73;;;;;;;24.86;41.67;101318.09;4423285;32;20095;-67
2021/09/04 00:06:52;;;;;;;30.45;15.73;;;;;;;24.74;41.88;101319.38;4416737;32;20321;-67
2021/09/04 00:09:18;;;;;;;34.67;15.25;;;;;;;24.98;41.65;101314.66;4425374;32;20128;-67
2021/09/04 00:11:43;;;;;;;34.92;14.93;;;;;;;24.68;42.17;101316.50;4417292;32;20046;-68
2021/09/04 00:14:09;;;;;;;30.80;15.48;;;;;;;24.85;41.77;101308.66;4422826;32;20549;-67
2021/09/04 00:16:35;;;;;;;34.13;15.18;;;;;;;24.90;41.80;101316.50;4422160;32;20093;-67
2021/09/04 00:19:00;;;;;;;33.00;15.93;;;;;;;24.99;41.56;101307.59;4421520;32;20049;-67
2021/09/04 00:21:26;;;;;;;33.95;15.20;;;;;;;24.88;41.68;101303.97;4422100;32;20042;-67
2021/09/04 00:23:52;;;;;;;27.85;14.73;;;;;;;24.94;41.76;101299.75;4423692;32;20188;-67
2021/09/04 00:26:17;;;;;;;34.17;16.25;;;;;;;25.04;41.49;101303.16;4421696;32;20044;-67
2021/09/04 00:28:43;;;;;;;29.90;15.68;;;;;;;24.94;41.72;101302.63;4425912;32;20034;-67
2021/09/04 00:31:09;;;;;;;39.17;16.75;;;;;;;24.86;41.97;101309.44;4422080;32;20606;-67
2021/09/04 00:33:35;;;;;;;32.50;16.02;;;;;;;24.80;41.99;101311.53;4423742;32;20192;-67
2021/09/04 00:36:01;;;;;;;33.78;16.25;;;;;;;24.84;42.15;101301.34;4421039;32;20041;-67
2021/09/04 00:38:26;;;;;;;39.67;18.00;;;;;;;24.57;42.46;101296.31;4423113;32;20100;-67
2021/09/04 00:40:52;;;;;;;32.05;17.48;;;;;;;24.73;42.21;101300.56;4420630;32;20112;-67
2021/09/04 00:43:18;;;;;;;33.83;18.37;;;;;;;24.72;42.31;101296.88;4419757;32;20632;-67
2021/09/04 00:45:43;;;;;;;36.63;18.48;;;;;;;24.87;42.04;101288.75;4421012;32;20094;-67
2021/09/04 00:48:09;;;;;;;36.33;17.17;;;;;;;24.86;42.09;101295.03;4418056;32;20191;-67
2021/09/04 00:50:36;;;;;;;42.20;18.73;;;;;;;24.84;42.20;101295.56;4423332;32;20081;-67
2021/09/04 00:53:04;;;;;;;33.17;18.20;;;;;;;25.03;41.94;101296.59;4422161;32;20489;-67
2021/09/04 00:55:30;;;;;;;44.67;20.05;;;;;;;25.02;42.07;101292.16;4423554;32;20209;-67
2021/09/04 00:57:56;;;;;;;38.17;18.85;;;;;;;24.85;42.26;101282.72;4421111;32;20452;-69
2021/09/04 01:00:22;;;;;;;36.15;18.73;;;;;;;24.94;42.07;101279.59;4419495;32;20127;-66
2021/09/04 01:02:49;;;;;;;40.22;19.65;;;;;;;24.93;42.13;101283.00;4423811;32;20056;-66
2021/09/04 01:05:14;;;;;;;41.72;19.58;;;;;;;24.85;42.27;101284.84;4425271;32;20041;-66
2021/09/04 01:07:41;;;;;;;39.88;18.95;;;;;;;24.86;42.23;101281.44;4421969;32;20126;-66
2021/09/04 01:10:09;;;;;;;41.70;19.27;;;;;;;25.07;42.04;101281.94;4421022;32;20341;-68
2021/09/04 01:12:35;;;;;;;40.72;19.95;;;;;;;25.07;41.88;101271.19;4423100;32;20034;-67
2021/09/04 01:15:01;;;;;;;48.38;20.60;;;;;;;24.85;42.06;101285.63;4422510;32;20063;-67
2021/09/04 01:17:27;;;;;;;44.83;21.02;;;;;;;24.90;42.06;101279.06;4421090;32;20049;-67
2021/09/04 01:19:54;;;;;;;41.63;20.80;;;;;;;24.87;42.07;101273.56;4424357;32;20037;-67
2021/09/04 01:22:20;;;;;;;47.78;20.70;;;;;;;24.81;42.14;101262.06;4420811;32;20073;-68
2021/09/04 01:24:49;;;;;;;40.42;20.25;;;;;;;24.91;42.02;101260.47;4421925;32;20100;-67
2021/09/04 01:27:17;;;;;;;40.12;20.37;;;;;;;25.09;41.76;101257.03;4421333;32;20252;-67
2021/09/04 01:29:43;;;;;;;40.65;20.17;;;;;;;24.96;41.95;101264.66;4425226;32;20708;-67
2021/09/04 01:32:08;;;;;;;39.90;19.30;;;;;;;24.64;42.57;101261.28;4422672;32;20073;-67
2021/09/04 01:34:34;;;;;;;42.85;18.85;;;;;;;24.83;42.09;101255.78;4420868;32;20495;-67
2021/09/04 01:37:01;;;;;;;39.45;19.65;;;;;;;24.85;42.00;101251.06;4423349;32;20081;-67
2021/09/04 01:39:26;;;;;;;40.85;19.83;;;;;;;24.92;41.81;101253.44;4421625;32;20097;-67
2021/09/04 01:41:52;;;;;;;38.00;18.65;;;;;;;24.70;42.34;101250.56;4422173;32;20372;-67
2021/09/04 01:44:17;;;;;;;42.78;20.17;;;;;;;24.81;42.17;101256.31;4418057;32;20068;-67
2021/09/04 01:46:43;;;;;;;39.60;19.52;;;;;;;24.84;42.19;101260.22;4424006;32;20068;-67
2021/09/04 01:49:09;;;;;;;38.28;18.98;;;;;;;24.72;42.32;101259.47;4419866;32;20077;-67
2021/09/04 01:51:34;;;;;;;36.90;19.30;;;;;;;24.79;42.25;101255.28;4424121;32;20030;-67
2021/09/04 01:54:00;;;;;;;41.30;19.50;;;;;;;24.64;42.39;101255.53;4424536;32;20378;-67
2021/09/04 01:56:26;;;;;;;40.47;20.67;;;;;;;24.65;42.30;101256.31;4424860;32;20415;-67
2021/09/04 01:58:52;;;;;;;38.42;18.95;;;;;;;24.68;42.37;101255.28;4424189;32;20061;-67
2021/09/04 02:01:18;;;;;;;48.65;21.58;;;;;;;24.65;42.20;101254.25;4423748;32;20099;-67
2021/09/04 02:03:43;;;;;;;38.03;19.60;;;;;;;24.65;42.41;101247.69;4423796;32;20042;-67
2021/09/04 02:06:09;;;;;;;39.20;20.33;;;;;;;24.59;42.50;101253.44;4423150;32;20127;-67
2021/09/04 02:08:35;;;;;;;41.75;21.27;;;;;;;24.52;42.51;101253.97;4424710;32;20081;-67
2021/09/04 02:11:01;;;;;;;39.15;20.10;;;;;;;24.68;42.33;101246.63;4423672;32;20081;-67
2021/09/04 02:13:28;;;;;;;43.22;21.33;;;;;;;24.64;42.32;101249.78;4421769;32;20203;-67
2021/09/04 02:15:53;;;;;;;40.85;20.42;;;;;;;24.62;42.31;101243.75;4427701;32;20026;-67
2021/09/04 02:18:20;;;;;;;42.97;21.35;;;;;;;24.54;42.60;101245.56;4423192;32;20538;-67
2021/09/04 02:20:47;;;;;;;45.05;22.48;;;;;;;24.68;42.31;101244.56;4423626;32;20426;-67
2021/09/04 02:23:15;;;;;;;51.45;24.12;;;;;;;24.66;42.44;101237.72;4421984;32;20060;-67
2021/09/04 02:25:41;;;;;;;56.33;22.95;;;;;;;24.70;42.42;101241.91;4422064;32;20394;-67
2021/09/04 02:28:08;;;;;;;50.83;21.48;;;;;;;24.61;42.48;101233.53;4423675;32;20185;-67
2021/09/04 02:30:33;;;;;;;45.53;21.67;;;;;;;24.78;42.13;101231.44;4424341;32;20063;-67
2021/09/04 02:32:59;;;;;;;49.20;21.58;;;;;;;24.65;42.12;101234.09;4423666;32;20080;-67
2021/09/04 02:35:25;;;;;;;46.90;21.37;;;;;;;24.71;42.18;101231.19;4424660;32;20042;-67
2021/09/04 02:37:51;;;;;;;43.50;21.00;;;;;;;24.69;42.32;101228.84;4419373;32;20104;-67
2021/09/04 02:40:17;;;;;;;39.95;20.52;;;;;;;24.65;42.17;101221.78;4424562;32;20034;-67
2021/09/04 02:42:43;;;;;;;45.53;21.12;;;;;;;24.86;42.22;101220.19;4420882;32;20116;-67
2021/09/04 02:45:10;;;;;;;44.13;21.35;;;;;;;24.62;41.98;101229.34;4423840;32;20097;-67
2021/09/04 02:47:36;;;;;;;43.15;20.98;;;;;;;24.94;42.04;101239.28;4422489;32;20054;-67
2021/09/04 02:50:03;;;;;;;41.58;20.67;;;;;;;24.59;42.40;101236.16;4423854;32;20529;-67
2021/09/04 02:52:29;;;;;;;38.72;20.37;;;;;;;24.53;42.64;101229.63;4424546;32;20077;-67
2021/09/04 02:54:55;;;;;;;41.45;20.70;;;;;;;24.11;43.63;101226.97;4425095;32;20072;-67
2021/09/04 02:57:21;;;;;;;37.50;20.25;;;;;;;24.38;43.10;101217.59;4421367;32;20053;-67
2021/09/04 02:59:47;;;;;;;42.45;21.52;;;;;;;24.52;42.89;101222.31;4422717;32;20081;-67
2021/09/04 03:02:14;;;;;;;43.35;21.95;;;;;;;24.56;42.67;101214.19;4422917;32;20029;-67
2021/09/04 03:04:40;;;;;;;51.30;21.27;;;;;;;24.55;42.86;101214.72;4424156;32;20198;-67
2021/09/04 03:07:06;;;;;;;45.22;21.35;;;;;;;24.54;42.80;101210.28;4423549;32;20094;-67
2021/09/04 03:09:32;;;;;;;43.78;21.50;;;;;;;24.59;42.58;101213.13;4426301;32;20438;-67
2021/09/04 03:11:57;;;;;;;42.72;20.62;;;;;;;24.64;42.52;101209.47;4420019;32;20033;-67
2021/09/04 03:14:23;;;;;;;38.83;19.37;;;;;;;24.62;42.61;101211.28;4421738;32;20794;-67
2021/09/04 03:16:48;;;;;;;42.78;20.52;;;;;;;24.64;42.44;101211.56;4422197;32;20064;-67
2021/09/04 03:19:14;;;;;;;40.58;20.30;;;;;;;24.72;42.32;101204.75;4425341;32;20136;-67
2021/09/04 03:21:40;;;;;;;40.40;20.27;;;;;;;24.57;42.41;101206.31;4423408;32;20037;-67
2021/09/04 03:24:05;;;;;;;39.20;19.15;;;;;;;24.59;42.49;101207.38;4423532;32;20085;-67
2021/09/04 03:26:31;;;;;;;41.95;19.65;;;;;;;24.66;42.43;101200.31;4423834;32;20110;-67
2021/09/04 03:28:57;;;;;;;37.13;20.25;;;;;;;24.53;42.66;101194.28;4423127;32;20026;-67
2021/09/04 03:31:22;;;;;;;41.78;20.15;;;;;;;24.62;42.27;101199.78;4422739;32;20044;-67
2021/09/04 03:33:48;;;;;;;41.10;20.52;;;;;;;24.69;42.39;101193.50;4421821;32;20060;-67
2021/09/04 03:36:13;;;;;;;34.65;19.83;;;;;;;24.66;42.43;101189.59;4425366;32;20038;-67
2021/09/04 03:38:39;;;;;;;39.25;20.90;;;;;;;24.67;42.17;101194.03;4424825;32;20143;-67
2021/09/04 03:41:05;;;;;;;39.35;20.50;;;;;;;24.71;42.44;101193.78;4420130;32;20064;-67
2021/09/04 03:43:31;;;;;;;39.83;21.20;;;;;;;24.51;42.34;101191.94;4425787;32;20481;-67
2021/09/04 03:45:57;;;;;;;41.35;21.10;;;;;;;24.71;42.21;101190.91;4424573;32;20102;-67
2021/09/04 03:48:23;;;;;;;37.70;18.90;;;;;;;24.67;42.33;101190.41;4421691;32;20073;-67
2021/09/04 03:50:48;;;;;;;39.22;19.30;;;;;;;24.63;42.37;101190.63;4420144;32;20441;-67
2021/09/04 03:53:14;;;;;;;41.45;19.92;;;;;;;24.56;42.40;101199.00;4421603;32;20037;-67
2021/09/04 03:55:40;;;;;;;35.05;19.23;;;;;;;24.71;42.07;101190.91;4421626;32;20421;-68
2021/09/04 03:58:06;;;;;;;38.95;19.00;;;;;;;24.70;42.13;101189.34;4425062;32;20049;-67
2021/09/04 04:00:32;;;;;;;42.60;20.98;;;;;;;24.70;42.23;101183.59;4420277;32;20076;-67
2021/09/04 04:02:57;;;;;;;40.30;21.35;;;;;;;24.63;42.31;101181.97;4422565;32;20111;-67
2021/09/04 04:05:23;;;;;;;39.08;19.90;;;;;;;24.57;42.26;101189.84;4423617;32;20101;-67
2021/09/04 04:07:48;;;;;;;39.58;19.42;;;;;;;24.68;42.10;101189.87;4422511;32;20049;-67
2021/09/04 04:10:14;;;;;;;41.45;19.37;;;;;;;24.46;42.49;101186.19;4421953;32;20041;-67
2021/09/04 04:12:41;;;;;;;44.05;18.87;;;;;;;24.52;42.40;101179.16;4423424;32;20073;-67
2021/09/04 04:15:07;;;;;;;44.00;22.17;;;;;;;24.63;42.10;101186.94;4420242;32;20121;-67
2021/09/04 04:17:32;;;;;;;36.85;20.05;;;;;;;24.56;42.16;101187.50;4423955;32;20157;-67
2021/09/04 04:19:58;;;;;;;42.72;20.52;;;;;;;24.46;42.56;101187.00;4424453;32;20097;-67
2021/09/04 04:22:24;;;;;;;36.72;18.60;;;;;;;24.45;42.49;101182.53;4422627;32;20108;-67
2021/09/04 04:24:50;;;;;;;44.80;19.75;;;;;;;24.57;42.17;101180.41;4420041;32;20092;-67
2021/09/04 04:27:16;;;;;;;36.58;18.12;;;;;;;24.42;42.20;101182.81;4419482;32;20391;-67
2021/09/04 04:29:42;;;;;;;33.78;18.08;;;;;;;24.44;42.43;101186.72;4422571;32;20098;-67
2021/09/04 04:32:08;;;;;;;32.47;16.90;;;;;;;24.39;42.52;101190.38;4421681;32;20423;-67
2021/09/04 04:34:33;;;;;;;35.78;17.77;;;;;;;24.45;42.39;101193.28;4419043;32;20103;-67
2021/09/04 04:36:59;;;;;;;32.60;17.45;;;;;;;24.56;41.92;101196.13;4424113;32;20156;-67
2021/09/04 04:39:24;;;;;;;36.20;18.15;;;;;;;24.51;42.09;101191.19;4419706;32;20042;-67
2021/09/04 04:41:50;;;;;;;36.78;17.20;;;;;;;24.51;41.98;101188.28;4421215;32;20072;-67
2021/09/04 04:44:17;;;;;;;34.03;16.42;;;;;;;24.41;42.53;101189.84;4423601;32;20025;-67
2021/09/04 04:46:43;;;;;;;31.40;16.52;;;;;;;24.48;42.15;101184.34;4422214;32;20091;-67
2021/09/04 04:49:08;;;;;;;35.30;17.55;;;;;;;24.52;42.13;101184.91;4421920;32;20126;-67
2021/09/04 04:51:36;;;;;;;33.33;17.90;;;;;;;24.45;42.17;101188.28;4417827;32;20037;-67
2021/09/04 04:54:03;;;;;;;32.25;17.55;;;;;;;24.31;42.61;101188.56;4422615;32;20053;-67
2021/09/04 04:56:30;;;;;;;36.22;17.52;;;;;;;24.69;41.76;101197.19;4420980;32;20474;-67
2021/09/04 04:58:55;;;;;;;35.65;17.30;;;;;;;24.62;41.86;101189.06;4419056;32;20042;-67
2021/09/04 05:01:21;;;;;;;32.22;17.40;;;;;;;24.21;42.54;101193.78;4420886;32;20393;-67
2021/09/04 05:03:47;;;;;;;39.03;17.42;;;;;;;24.49;42.28;101188.81;4425447;32;20162;-67
2021/09/04 05:06:12;;;;;;;33.45;16.50;;;;;;;24.37;42.43;101189.34;4418496;32;20374;-67
2021/09/04 05:08:38;;;;;;;40.20;18.30;;;;;;;24.54;42.13;101182.25;4420121;32;20041;-67
2021/09/04 05:11:04;;;;;;;37.05;17.85;;;;;;;24.59;41.91;101190.13;4420772;32;20105;-68
2021/09/04 05:13:29;;;;;;;39.50;18.25;;;;;;;24.61;41.91;101189.59;4420642;32;20073;-67
2021/09/04 05:15:55;;;;;;;34.20;16.33;;;;;;;24.54;42.30;101193.78;4423980;32;20121;-67
2021/09/04 05:18:21;;;;;;;36.85;17.70;;;;;;;24.72;41.68;101193.25;4423483;32;20086;-67
2021/09/04 05:20:48;;;;;;;33.33;17.23;;;;;;;24.64;41.95;101194.28;4420845;32;20141;-67
2021/09/04 05:23:13;;;;;;;34.42;17.02;;;;;;;24.58;41.98;101190.63;4421130;32;20400;-67
2021/09/04 05:25:39;;;;;;;29.98;15.85;;;;;;;24.66;41.86;101192.47;4419977;32;20072;-67
2021/09/04 05:28:05;;;;;;;34.35;17.37;;;;;;;24.51;41.73;101197.69;4421181;32;20078;-67
2021/09/04 05:30:31;;;;;;;34.38;17.90;;;;;;;24.60;42.19;101190.88;4427147;32;20084;-67
2021/09/04 05:32:56;;;;;;;35.38;18.15;;;;;;;24.62;41.88;101194.03;4424983;32;20068;-67
2021/09/04 05:35:22;;;;;;;36.90;17.87;;;;;;;24.68;42.09;101197.72;4422651;32;20057;-67
2021/09/04 05:37:48;;;;;;;30.92;17.27;;;;;;;24.57;42.21;101201.34;4426873;32;20085;-67
2021/09/04 05:40:13;;;;;;;32.88;17.23;;;;;;;24.62;42.29;101203.44;4423102;32;20174;-67
2021/09/04 05:42:39;;;;;;;37.58;18.20;;;;;;;24.46;42.23;101195.63;4422910;32;20118;-67
2021/09/04 05:45:07;;;;;;;39.15;19.48;;;;;;;24.65;41.99;101202.44;4425269;32;20072;-67
2021/09/04 05:47:33;;;;;;;37.97;18.23;;;;;;;24.86;42.05;101200.81;4425903;32;20542;-67
2021/09/04 05:49:58;;;;;;;32.47;16.92;;;;;;;24.63;43.07;101199.25;4425729;32;20090;-67
2021/09/04 05:52:24;;;;;;;32.10;16.67;;;;;;;24.61;43.20;101210.50;4421330;32;20077;-67
2021/09/04 05:54:49;;;;;;;30.52;17.00;;;;;;;24.65;43.49;101210.28;4421011;32;20107;-67
2021/09/04 05:57:15;;;;;;;37.15;17.37;;;;;;;24.59;43.27;101207.38;4419005;32;20389;-67
2021/09/04 05:59:41;;;;;;;34.00;17.80;;;;;;;24.57;43.45;101209.19;4425194;32;20053;-67
2021/09/04 06:02:06;;;;;;;37.75;19.05;;;;;;;24.51;43.61;101206.31;4424010;32;20477;-67
2021/09/04 06:04:36;;;;;;;37.00;18.08;;;;;;;24.64;43.52;101205.81;4424550;32;20069;-67
2021/09/04 06:07:03;;;;;;;38.58;18.98;;;;;;;24.79;43.42;101203.47;4424643;32;20390;-67
2021/09/04 06:09:28;;;;;;;38.80;19.05;;;;;;;24.69;43.58;101202.94;4423288;32;20041;-67
2021/09/04 06:11:54;;;;;;;40.30;18.58;;;;;;;24.52;43.71;101202.16;4420194;32;20454;-67
2021/09/04 06:14:20;;;;;;;38.30;18.80;;;;;;;24.58;43.18;101200.03;4420532;32;20141;-67
2021/09/04 06:16:46;;;;;;;36.72;17.40;;;;;;;24.33;44.11;101195.34;4421580;32;20042;-67
2021/09/04 06:19:12;;;;;;;30.85;17.58;;;;;;;24.55;43.48;101198.22;4424013;32;20074;-67
2021/09/04 06:21:38;;;;;;;36.60;17.55;;;;;;;24.55;43.63;101201.12;4423928;32;20095;-67
2021/09/04 06:24:04;;;;;;;37.80;18.37;;;;;;;24.74;43.19;101195.59;4423963;32;20507;-67
2021/09/04 06:26:30;;;;;;;36.95;18.58;;;;;;;24.68;42.96;101192.75;4426449;32;20081;-67
2021/09/04 06:28:56;;;;;;;34.72;17.40;;;;;;;24.70;42.79;101193.00;4423401;32;20471;-67
2021/09/04 06:31:22;;;;;;;38.55;18.92;;;;;;;24.85;42.90;101193.47;4424640;32;20098;-67
2021/09/04 06:33:48;;;;;;;36.00;18.15;;;;;;;24.79;43.00;101198.47;4424084;32;20447;-67
2021/09/04 06:36:14;;;;;;;38.90;18.15;;;;;;;24.80;42.60;101193.50;4426070;32;20029;-67
2021/09/04 06:38:40;;;;;;;38.25;18.85;;;;;;;24.93;42.22;101199.47;4423609;32;20466;-67
2021/09/04 06:41:05;;;;;;;33.90;17.35;;;;;;;24.93;42.26;101197.41;4423058;32;20049;-67
2021/09/04 06:43:31;;;;;;;40.60;18.50;;;;;;;25.08;41.84;101205.72;4423720;32;20095;-67
2021/09/04 06:45:57;;;;;;;35.47;18.70;;;;;;;25.14;41.65;101200.72;4424438;32;20441;-67
2021/09/04 06:48:22;;;;;;;33.55;18.08;;;;;;;25.11;41.76;101196.81;4424601;32;20083;-67
2021/09/04 06:50:48;;;;;;;43.92;19.33;;;;;;;25.22;41.44;101196.78;4421524;32;20383;-67
2021/09/04 06:53:15;;;;;;;38.92;19.02;;;;;;;25.24;41.35;101196.22;4424158;32;20097;-67
2021/09/04 06:55:40;;;;;;;35.75;18.62;;;;;;;25.28;41.03;101205.41;4421394;32;20104;-67
2021/09/04 06:58:06;;;;;;;36.00;18.90;;;;;;;25.38;40.87;101198.06;4424452;32;20021;-67
2021/09/04 07:00:32;;;;;;;43.20;21.20;;;;;;;25.24;41.25;101196.22;4421736;32;20089;-67
2021/09/04 07:02:57;;;;;;;40.92;19.12;;;;;;;25.26;41.13;101191.53;4422097;32;20100;-67
2021/09/04 07:05:23;;;;;;;37.22;18.80;;;;;;;25.31;40.75;101199.37;4423832;32;20089;-67
2021/09/04 07:07:49;;;;;;;35.08;18.90;;;;;;;25.35;40.41;101194.13;4425204;32;20116;-67
2021/09/04 07:10:15;;;;;;;44.22;19.42;;;;;;;25.21;40.88;101200.19;4423289;32;20054;-67
2021/09/04 07:12:41;;;;;;;40.65;19.17;;;;;;;25.31;40.75;101192.78;4422491;32;20096;-67
2021/09/04 07:15:07;;;;;;;40.50;19.15;;;;;;;25.39;40.54;101190.97;4421311;32;20125;-67
2021/09/04 07:17:33;;;;;;;42.90;18.73;;;;;;;25.38;40.64;101193.06;4422363;32;20445;-67
2021/09/04 07:19:59;;;;;;;37.42;18.87;;;;;;;25.35;40.68;101194.13;4423940;32;20364;-67
2021/09/04 07:22:24;;;;;;;32.08;16.45;;;;;;;24.96;41.07;101201.31;4417821;32;20046;-67
2021/09/04 07:24:50;;;;;;;45.30;18.92;;;;;;;25.21;40.84;101198.09;4420523;32;20068;-67
2021/09/04 07:27:16;;;;;;;36.97;16.77;;;;;;;25.28;40.81;101206.16;4423137;32;20049;-67
2021/09/04 07:29:42;;;;;;;37.85;16.83;;;;;;;25.35;40.71;101205.63;4422629;32;20474;-67
2021/09/04 07:32:08;;;;;;;37.83;16.77;;;;;;;25.42;40.16;101217.94;4423985;32;20114;-67
2021/09/04 07:34:34;;;;;;;41.90;18.12;;;;;;;25.58;40.42;101212.09;4422474;32;20130;-67
2021/09/04 07:36:59;;;;;;;33.80;16.75;;;;;;;25.54;40.30;101210.81;4423082;32;20439;-67
2021/09/04 07:39:25;;;;;;;36.55;19.20;;;;;;;25.61;40.21;101211.03;4421578;32;20049;-67
2021/09/04 07:41:51;;;;;;;31.92;17.33;;;;;;;25.66;40.00;101206.53;4418600;32;20104;-67
2021/09/04 07:44:16;;;;;;;37.83;17.58;;;;;;;25.61;39.93;101208.16;4418433;32;20109;-67
2021/09/04 07:46:42;;;;;;;36.30;17.25;;;;;;;25.85;39.66;101213.25;4421019;32;20054;-67
2021/09/04 07:49:08;;;;;;;33.30;16.60;;;;;;;25.73;39.83;101211.75;4421290;32;20419;-67
2021/09/04 07:51:34;;;;;;;37.05;18.08;;;;;;;25.64;39.96;101217.84;4421236;32;20039;-67
2021/09/04 07:54:00;;;;;;;33.38;15.75;;;;;;;25.63;39.92;101213.37;4421433;32;20107;-67
2021/09/04 07:56:25;;;;;;;32.60;17.30;;;;;;;25.82;39.57;101214.31;4421542;32;20042;-67
2021/09/04 07:58:51;;;;;;;35.00;16.67;;;;;;;25.85;39.55;101216.13;4419920;32;20078;-68
2021/09/04 08:01:16;;;;;;;39.78;16.55;;;;;;;25.75;39.61;101215.69;4423175;32;20138;-68
2021/09/04 08:03:42;;;;;;;37.17;17.52;;;;;;;25.56;39.71;101216.81;4420818;32;20045;-68
2021/09/04 08:06:08;;;;;;;34.83;17.30;;;;;;;25.48;40.10;101219.47;4419197;32;20049;-68
2021/09/04 08:08:35;;;;;;;34.78;16.80;;;;;;;25.81;39.62;101224.28;4423944;32;20507;-68
2021/09/04 08:11:01;;;;;;;34.42;16.77;;;;;;;26.13;39.18;101220.44;4422082;32;20073;-68
2021/09/04 08:13:26;;;;;;;33.45;17.27;;;;;;;26.19;38.88;101226.16;4420451;32;20462;-68
2021/09/04 08:15:52;;;;;;;37.75;18.30;;;;;;;26.31;38.74;101218.97;4420841;32;20053;-68
2021/09/04 08:18:18;;;;;;;35.13;17.52;;;;;;;26.29;38.53;101215.88;4424937;32;20084;-68
2021/09/04 08:20:43;;;;;;;34.28;18.15;;;;;;;26.32;38.62;101223.44;4422685;32;20026;-68
2021/09/04 08:23:10;;;;;;;33.63;17.35;;;;;;;26.08;39.15;101227.00;4423246;32;20037;-68
2021/09/04 08:25:36;;;;;;;34.28;17.30;;;;;;;25.92;39.64;101222.12;4422589;32;20046;-68
2021/09/04 08:28:07;;;;;;;30.27;16.23;;;;;;;26.35;38.73;101228.91;4421504;32;20141;-68
2021/09/04 08:30:34;;;;;;;40.20;16.83;;;;;;;26.61;38.27;101222.66;4422998;32;20438;-68
2021/09/04 08:33:00;;;;;;;38.47;16.55;;;;;;;26.65;38.23;101226.84;4421902;32;20604;-68
2021/09/04 08:35:27;;;;;;;34.92;17.67;;;;;;;26.68;38.15;101227.88;4418369;32;20349;-68
2021/09/04 08:37:53;;;;;;;34.47;16.83;;;;;;;26.60;38.13;101232.66;4421218;32;20097;-68
2021/09/04 08:40:20;;;;;;;33.20;16.50;;;;;;;26.64;38.02;101236.06;4423499;32;20457;-68
2021/09/04 08:42:47;;;;;;;36.22;16.83;;;;;;;27.07;37.45;101242.72;4419176;32;20162;-68
2021/09/04 08:45:13;;;;;;;35.35;15.75;;;;;;;26.85;37.70;101245.84;4419851;32;20215;-68
2021/09/04 08:47:39;;;;;;;29.17;16.58;;;;;;;27.13;37.05;101243.44;4419330;32;20061;-68
2021/09/04 08:50:05;;;;;;;31.33;16.15;;;;;;;27.17;36.99;101238.13;4422232;32;20022;-68
2021/09/04 08:52:32;;;;;;;38.00;16.40;;;;;;;27.35;36.79;101246.09;4421077;32;20079;-67
2021/09/04 08:54:58;;;;;;;28.40;14.73;;;;;;;27.27;36.87;101244.34;4420221;32;20391;-69
2021/09/04 08:57:24;;;;;;;28.40;15.10;;;;;;;27.41;36.50;101240.22;4421438;32;20478;-69
2021/09/04 08:59:50;;;;;;;27.52;14.95;;;;;;;27.28;36.51;101240.13;4425794;32;20071;-67
2021/09/04 09:02:18;;;;;;;33.40;15.60;;;;;;;27.42;36.37;101245.47;4421506;32;20025;-67
2021/09/04 09:04:58;;;;;;;32.60;16.23;;;;;;;27.53;36.17;101244.56;4427272;32;20091;-67
2021/09/04 09:07:38;;;;;;;26.42;15.75;;;;;;;27.69;35.60;101249.31;4423197;32;20356;-67
2021/09/04 09:10:05;;;;;;;34.97;15.93;;;;;;;27.62;36.07;101244.16;4424205;32;20067;-67
2021/09/04 09:12:31;;;;;;;28.20;14.65;;;;;;;27.04;36.86;101249.56;4422624;32;20045;-67
2021/09/04 09:14:58;;;;;;;30.90;14.30;;;;;;;27.28;36.66;101258.28;4421323;32;20479;-67
2021/09/04 09:17:26;;;;;;;29.50;15.43;;;;;;;27.42;36.72;101257.03;4426487;32;20431;-67
2021/09/04 09:20:05;;;;;;;29.70;14.63;;;;;;;27.45;36.53;101258.84;4426802;32;20025;-69
2021/09/04 09:22:43;;;;;;;31.80;15.07;;;;;;;27.57;36.01;101262.38;4422704;32;20065;-67
2021/09/04 09:25:16;;;;;;;27.25;14.60;;;;;;;27.61;36.15;101263.63;4422290;32;20090;-68
2021/09/04 09:28:04;;;;;;;29.42;14.35;;;;;;;27.64;36.12;101259.63;4424946;32;20164;-67
2021/09/04 09:30:32;;;;;;;33.50;14.98;;;;;;;27.77;36.00;101267.63;4424061;32;20430;-67
2021/09/04 09:32:58;;;;;;;31.45;14.52;;;;;;;27.56;35.99;101255.81;4427417;32;20377;-68
2021/09/04 09:35:34;;;;;;;29.42;14.60;;;;;;;27.58;36.25;101261.81;4425966;32;20482;-67
2021/09/04 09:38:02;;;;;;;23.77;13.10;;;;;;;27.95;35.66;101258.97;4422705;32;20058;-67
2021/09/04 09:40:29;;;;;;;28.05;14.02;;;;;;;27.89;35.68;101261.16;4422697;32;20080;-67
2021/09/04 09:42:55;;;;;;;30.60;13.95;;;;;;;27.95;35.41;101258.22;4425505;32;20072;-67
2021/09/04 09:45:38;;;;;;;27.95;14.55;;;;;;;28.08;34.94;101253.28;4425779;32;20116;-67
2021/09/04 09:48:04;;;;;;;27.65;14.05;;;;;;;28.27;35.03;101250.34;4424714;32;20045;-67
2021/09/04 09:50:32;;;;;;;26.30;14.45;;;;;;;28.19;34.99;101258.88;4424299;32;20274;-67
2021/09/04 09:52:59;;;;;;;26.87;14.50;;;;;;;28.17;35.12;101247.09;4424492;32;20042;-68
2021/09/04 09:55:26;;;;;;;25.30;12.82;;;;;;;28.39;34.83;101257.53;4424428;32;20038;-68
2021/09/04 09:57:54;;;;;;;26.77;12.40;;;;;;;28.44;34.68;101257.44;4424450;32;20107;-68
2021/09/04 10:00:20;;;;;;;26.83;13.52;;;;;;;28.72;34.26;101259.91;4422367;32;20069;-67
2021/09/04 10:02:46;;;;;;;23.48;13.10;;;;;;;28.83;33.96;101248.91;4423813;32;20462;-68
2021/09/04 10:05:14;;;;;;;25.30;12.85;;;;;;;28.86;33.73;101252.78;4418422;32;20056;-67
2021/09/04 10:07:40;;;;;;;24.80;13.45;;;;;;;29.05;33.38;101255.66;4421856;32;20439;-67
2021/09/04 10:10:06;;;;;;;25.77;13.88;;;;;;;28.95;33.64;101240.78;4423200;32;20130;-67
2021/09/04 10:12:33;;;;;;;27.40;12.13;;;;;;;28.91;33.66;101244.03;4422688;32;20627;-68
2021/09/04 10:14:58;;;;;;;23.10;12.27;;;;;;;29.16;33.23;101247.53;4422800;32;20124;-68
2021/09/04 10:17:25;;;;;;;25.27;13.20;;;;;;;28.97;33.39;101241.78;4422043;32;20065;-67
2021/09/04 10:19:52;;;;;;;20.17;12.20;;;;;;;29.18;33.08;101244.06;4423340;32;20076;-68
2021/09/04 10:22:18;;;;;;;27.95;13.30;;;;;;;29.34;33.13;101245.84;4424947;32;20059;-68
2021/09/04 10:24:53;;;;;;;27.25;13.57;;;;;;;29.25;32.95;101247.06;4422626;32;20046;-68
2021/09/04 10:27:40;;;;;;;22.23;13.00;;;;;;;29.64;32.20;101238.38;4420705;32;20089;-68
2021/09/04 10:30:25;;;;;;;;;;;;;;;29.59;32.35;101242.16;4426097;32;20129;-67
2021/09/04 10:38:27;;;;;;;22.65;12.63;;;;;;;30.15;32.11;101245.38;4001315;31;15017399;-68
2021/09/04 10:43:54;;;;;;;26.48;12.43;;;;;;;30.52;31.57;101245.03;3999499;31;15016183;-68
2021/09/04 10:46:20;;;;;;;23.95;12.35;;;;;;;30.52;31.57;101245.03;4459819;32;20438;-68
2021/09/04 10:49:03;;;;;;;24.48;13.05;;;;;;;29.90;32.33;101237.53;4455863;32;20064;-68
2021/09/04 10:51:46;;;;;;;26.77;13.50;;;;;;;30.04;31.83;101233.25;4457040;32;20430;-68
2021/09/04 10:54:52;;;;;;;27.83;12.45;;;;;;;30.17;31.48;101236.09;4456724;32;20161;-68
2021/09/04 10:57:19;;;;;;;26.30;13.13;;;;;;;29.64;32.29;101238.38;4452063;32;20087;-68
2021/09/04 11:00:07;;;;;;;29.48;14.07;;;;;;;29.12;33.20;101234.69;4461228;32;20148;-68
2021/09/04 11:08:03;;;;;;;22.90;12.15;;;;;;;29.80;32.14;101230.63;3984665;32;15023322;-68
2021/09/04 11:10:31;;;;;;;21.77;12.35;;;;;;;29.80;32.14;101230.63;4434094;32;20115;-68
2021/09/04 11:15:40;;;;;;;25.40;12.70;;;;;;;29.90;32.02;101226.72;4003313;31;15018884;-68
2021/09/04 11:18:07;;;;;;;23.55;12.10;;;;;;;29.90;32.02;101226.72;4459973;32;20484;-68
2021/09/04 11:20:33;;;;;;;29.00;12.57;;;;;;;29.61;32.01;101221.28;4461463;32;20378;-68
2021/09/04 11:22:58;;;;;;;24.25;11.85;;;;;;;29.59;31.85;101229.75;4461157;32;20045;-68
2021/09/04 11:25:24;;;;;;;19.95;11.55;;;;;;;29.59;31.86;101215.25;4460289;32;20373;-68